AEH542Q EGFF-EGNR
Flight info
| Callsign | AEH542Q |
|---|---|
| Flight time | 0h 47m |
| Altitude | 16000 |
| Route | BCN1B BCN P69 DIZIM N864 MONTY PEPZ1L |
| Aircraft | E145/M-SDFGIRW/S |
Departure
| Time | 2026-04-22 18:49 |
|---|---|
| Airport | Cardiff International Airport (EGFF) |
Arrival
| Time | 2026-04-22 19:37 |
|---|---|
| Airport | Hawarden Airport (EGNR) |
| Time | Latitude | Longitude | Altitude | Speed | Heading |
|---|---|---|---|---|---|
| 2026-04-22 18:20 | 51.39682 | -3.33605 | 217 ft | 0 kts | 263° |
| 2026-04-22 18:44 | 51.39680 | -3.33620 | 218 ft | 4 kts | 259° |
| 2026-04-22 18:45 | 51.39673 | -3.33679 | 218 ft | 7 kts | 258° |
| 2026-04-22 18:45 | 51.39671 | -3.33774 | 218 ft | 9 kts | 291° |
| 2026-04-22 18:45 | 51.39704 | -3.33888 | 219 ft | 12 kts | 296° |
| 2026-04-22 18:45 | 51.39747 | -3.34023 | 219 ft | 14 kts | 297° |
| 2026-04-22 18:46 | 51.39785 | -3.34140 | 220 ft | 16 kts | 297° |
| 2026-04-22 18:46 | 51.39843 | -3.34324 | 220 ft | 19 kts | 297° |
| 2026-04-22 18:46 | 51.39909 | -3.34530 | 221 ft | 21 kts | 297° |
| 2026-04-22 18:46 | 51.39978 | -3.34751 | 221 ft | 23 kts | 297° |
| 2026-04-22 18:47 | 51.40045 | -3.34961 | 220 ft | 21 kts | 297° |
| 2026-04-22 18:47 | 51.40120 | -3.35199 | 218 ft | 24 kts | 297° |
| 2026-04-22 18:47 | 51.40152 | -3.35399 | 215 ft | 17 kts | 244° |
| 2026-04-22 18:47 | 51.40065 | -3.35528 | 214 ft | 12 kts | 202° |
| 2026-04-22 18:48 | 51.40025 | -3.35486 | 215 ft | 3 kts | 116° |
| 2026-04-22 18:48 | 51.40025 | -3.35485 | 215 ft | 0 kts | 116° |
| 2026-04-22 18:48 | 51.40017 | -3.35459 | 215 ft | 11 kts | 116° |
| 2026-04-22 18:49 | 51.39862 | -3.34969 | 221 ft | 94 kts | 117° |
| 2026-04-22 18:49 | 51.39470 | -3.33719 | 433 ft | 141 kts | 117° |
| 2026-04-22 18:49 | 51.39009 | -3.32287 | 1119 ft | 154 kts | 118° |
| 2026-04-22 18:49 | 51.38511 | -3.30747 | 1973 ft | 161 kts | 117° |
| 2026-04-22 18:50 | 51.38014 | -3.29156 | 2857 ft | 168 kts | 117° |
| 2026-04-22 18:50 | 51.37508 | -3.27536 | 3777 ft | 165 kts | 117° |
| 2026-04-22 18:50 | 51.36958 | -3.25780 | 4073 ft | 199 kts | 116° |
| 2026-04-22 18:50 | 51.36266 | -3.23569 | 4223 ft | 241 kts | 117° |
| 2026-04-22 18:51 | 51.35509 | -3.21155 | 5167 ft | 244 kts | 117° |
| 2026-04-22 18:51 | 51.34910 | -3.18702 | 6150 ft | 244 kts | 107° |
| 2026-04-22 18:51 | 51.34655 | -3.16009 | 7041 ft | 248 kts | 83° |
| 2026-04-22 18:51 | 51.35274 | -3.13499 | 7902 ft | 251 kts | 59° |
| 2026-04-22 18:52 | 51.36167 | -3.11160 | 8761 ft | 254 kts | 54° |
| 2026-04-22 18:52 | 51.37504 | -3.09365 | 9583 ft | 258 kts | 29° |
| 2026-04-22 18:52 | 51.39175 | -3.08399 | 10324 ft | 265 kts | 6° |
| 2026-04-22 18:52 | 51.41067 | -3.08762 | 10441 ft | 295 kts | 342° |
| 2026-04-22 18:53 | 51.43088 | -3.09886 | 10473 ft | 325 kts | 336° |
| 2026-04-22 18:53 | 51.45170 | -3.11597 | 10823 ft | 340 kts | 332° |
| 2026-04-22 18:53 | 51.47247 | -3.13422 | 11572 ft | 342 kts | 331° |
| 2026-04-22 18:53 | 51.49330 | -3.15278 | 12281 ft | 344 kts | 331° |
| 2026-04-22 18:54 | 51.51550 | -3.16666 | 12904 ft | 348 kts | 345° |
| 2026-04-22 18:54 | 51.53906 | -3.17731 | 13550 ft | 351 kts | 344° |
| 2026-04-22 18:54 | 51.56268 | -3.18812 | 14177 ft | 354 kts | 344° |
| 2026-04-22 18:54 | 51.58668 | -3.19913 | 14791 ft | 357 kts | 344° |
| 2026-04-22 18:55 | 51.61064 | -3.21013 | 15384 ft | 361 kts | 344° |
| 2026-04-22 18:55 | 51.63479 | -3.22122 | 15910 ft | 356 kts | 344° |
| 2026-04-22 18:55 | 51.65913 | -3.23241 | 16060 ft | 361 kts | 344° |
| 2026-04-22 18:55 | 51.68344 | -3.24361 | 16069 ft | 366 kts | 344° |
| 2026-04-22 18:56 | 51.70828 | -3.25505 | 16067 ft | 366 kts | 344° |
| 2026-04-22 18:56 | 51.73323 | -3.26053 | 16061 ft | 364 kts | 2° |
| 2026-04-22 18:56 | 51.75827 | -3.25497 | 16072 ft | 363 kts | 9° |
| 2026-04-22 18:56 | 51.78347 | -3.24882 | 16068 ft | 362 kts | 9° |
| 2026-04-22 18:57 | 51.80868 | -3.24271 | 16067 ft | 364 kts | 7° |
| 2026-04-22 18:57 | 51.83405 | -3.23918 | 16060 ft | 366 kts | 11° |
| 2026-04-22 18:57 | 51.85951 | -3.23017 | 16069 ft | 368 kts | 9° |
| 2026-04-22 18:57 | 51.88486 | -3.22387 | 16069 ft | 370 kts | 9° |
| 2026-04-22 18:58 | 51.91070 | -3.21746 | 16068 ft | 372 kts | 9° |
| 2026-04-22 18:58 | 51.93655 | -3.21106 | 16068 ft | 374 kts | 9° |
| 2026-04-22 18:58 | 51.96240 | -3.20465 | 16068 ft | 375 kts | 9° |
| 2026-04-22 18:58 | 51.98830 | -3.19823 | 16068 ft | 377 kts | 9° |
| 2026-04-22 18:59 | 51.99720 | -3.19602 | 16068 ft | 377 kts | 9° |
| 2026-04-22 19:07 | 52.00876 | -3.19315 | 16068 ft | 377 kts | 9° |
| 2026-04-22 19:07 | 52.03486 | -3.18670 | 16068 ft | 378 kts | 8° |
| 2026-04-22 19:07 | 52.06102 | -3.18373 | 16069 ft | 378 kts | 2° |
| 2026-04-22 19:08 | 52.08660 | -3.18182 | 16068 ft | 379 kts | 3° |
| 2026-04-22 19:08 | 52.11209 | -3.17987 | 16068 ft | 380 kts | 3° |
| 2026-04-22 19:08 | 52.13765 | -3.17792 | 16068 ft | 380 kts | 3° |
| 2026-04-22 19:08 | 52.16428 | -3.17587 | 16068 ft | 380 kts | 3° |
| 2026-04-22 19:09 | 52.19098 | -3.17382 | 16068 ft | 381 kts | 3° |
| 2026-04-22 19:09 | 52.21780 | -3.17175 | 16067 ft | 381 kts | 3° |
| 2026-04-22 19:09 | 52.23563 | -3.17038 | 16068 ft | 381 kts | 3° |
| 2026-04-22 19:09 | 52.27091 | -3.16765 | 16069 ft | 381 kts | 3° |
| 2026-04-22 19:10 | 52.29769 | -3.16559 | 16069 ft | 382 kts | 3° |
| 2026-04-22 19:10 | 52.32453 | -3.16351 | 16069 ft | 382 kts | 3° |
| 2026-04-22 19:10 | 52.35099 | -3.16146 | 16069 ft | 382 kts | 3° |
| 2026-04-22 19:10 | 52.37789 | -3.15937 | 16069 ft | 382 kts | 3° |
| 2026-04-22 19:11 | 52.40455 | -3.15730 | 16069 ft | 382 kts | 3° |
| 2026-04-22 19:11 | 52.43140 | -3.15521 | 16069 ft | 382 kts | 3° |
| 2026-04-22 19:11 | 52.45813 | -3.15310 | 16069 ft | 382 kts | 3° |
| 2026-04-22 19:11 | 52.48465 | -3.15327 | 16069 ft | 382 kts | 358° |
| 2026-04-22 19:12 | 52.51138 | -3.15450 | 16069 ft | 382 kts | 358° |
| 2026-04-22 19:12 | 52.53822 | -3.15582 | 16069 ft | 382 kts | 358° |
| 2026-04-22 19:12 | 52.56504 | -3.15718 | 16069 ft | 382 kts | 358° |
| 2026-04-22 19:12 | 52.59201 | -3.15855 | 16069 ft | 382 kts | 358° |
| 2026-04-22 19:13 | 52.61866 | -3.15991 | 16028 ft | 379 kts | 358° |
| 2026-04-22 19:13 | 52.64505 | -3.16126 | 15823 ft | 380 kts | 358° |
| 2026-04-22 19:13 | 52.67194 | -3.16263 | 15512 ft | 380 kts | 358° |
| 2026-04-22 19:13 | 52.69838 | -3.16399 | 15100 ft | 382 kts | 358° |
| 2026-04-22 19:14 | 52.72496 | -3.16535 | 14599 ft | 372 kts | 358° |
| 2026-04-22 19:14 | 52.75083 | -3.16669 | 14089 ft | 364 kts | 358° |
| 2026-04-22 19:14 | 52.77577 | -3.16797 | 13589 ft | 356 kts | 358° |
| 2026-04-22 19:14 | 52.79975 | -3.16920 | 13086 ft | 341 kts | 358° |
| 2026-04-22 19:15 | 52.81552 | -3.17002 | 12722 ft | 332 kts | 358° |
| 2026-04-22 19:15 | 52.84592 | -3.17158 | 11910 ft | 321 kts | 358° |
| 2026-04-22 19:15 | 52.86781 | -3.17272 | 11312 ft | 315 kts | 358° |
| 2026-04-22 19:15 | 52.88982 | -3.17386 | 10699 ft | 309 kts | 358° |
| 2026-04-22 19:16 | 52.91066 | -3.17649 | 10020 ft | 286 kts | 3° |
| 2026-04-22 19:16 | 52.92997 | -3.17356 | 9416 ft | 268 kts | 0° |
| 2026-04-22 19:16 | 52.94850 | -3.17138 | 8866 ft | 268 kts | 4° |
| 2026-04-22 19:16 | 52.96725 | -3.16911 | 8267 ft | 272 kts | 5° |
| 2026-04-22 19:17 | 52.98615 | -3.16665 | 7656 ft | 273 kts | 3° |
| 2026-04-22 19:17 | 53.00482 | -3.16525 | 7004 ft | 260 kts | 3° |
| 2026-04-22 19:17 | 53.02252 | -3.16385 | 6393 ft | 249 kts | 3° |
| 2026-04-22 19:17 | 53.03972 | -3.16249 | 5810 ft | 240 kts | 3° |
| 2026-04-22 19:18 | 53.05603 | -3.16120 | 5438 ft | 230 kts | 3° |
| 2026-04-22 19:18 | 53.07193 | -3.15995 | 5054 ft | 234 kts | 3° |
| 2026-04-22 19:18 | 53.08843 | -3.15864 | 4695 ft | 234 kts | 3° |
| 2026-04-22 19:18 | 53.10424 | -3.15739 | 4537 ft | 226 kts | 3° |
| 2026-04-22 19:19 | 53.11927 | -3.15620 | 4506 ft | 213 kts | 3° |
| 2026-04-22 19:19 | 53.13341 | -3.15508 | 4620 ft | 204 kts | 3° |
| 2026-04-22 19:19 | 53.14762 | -3.15395 | 4641 ft | 204 kts | 2° |
| 2026-04-22 19:19 | 53.16121 | -3.15862 | 4647 ft | 203 kts | 327° |
| 2026-04-22 19:20 | 53.16973 | -3.17618 | 4660 ft | 200 kts | 290° |
| 2026-04-22 19:20 | 53.17364 | -3.19826 | 4648 ft | 201 kts | 285° |
| 2026-04-22 19:20 | 53.17739 | -3.22056 | 4643 ft | 202 kts | 284° |
| 2026-04-22 19:20 | 53.17670 | -3.24326 | 4651 ft | 200 kts | 245° |
| 2026-04-22 19:21 | 53.16779 | -3.25945 | 4663 ft | 192 kts | 210° |
| 2026-04-22 19:21 | 53.15575 | -3.26889 | 4635 ft | 187 kts | 205° |
| 2026-04-22 19:21 | 53.14391 | -3.27795 | 4629 ft | 182 kts | 205° |
| 2026-04-22 19:21 | 53.13256 | -3.28662 | 4629 ft | 178 kts | 205° |
| 2026-04-22 19:22 | 53.12127 | -3.29525 | 4629 ft | 174 kts | 205° |
| 2026-04-22 19:22 | 53.11039 | -3.30356 | 4630 ft | 170 kts | 205° |
| 2026-04-22 19:22 | 53.09969 | -3.31173 | 4630 ft | 167 kts | 205° |
| 2026-04-22 19:22 | 53.08904 | -3.31986 | 4630 ft | 165 kts | 205° |
| 2026-04-22 19:23 | 53.07936 | -3.32724 | 4631 ft | 162 kts | 205° |
| 2026-04-22 19:29 | 53.06947 | -3.33197 | 4623 ft | 159 kts | 177° |
| 2026-04-22 19:30 | 53.06265 | -3.32860 | 4636 ft | 156 kts | 147° |
| 2026-04-22 19:30 | 53.05320 | -3.31172 | 4638 ft | 155 kts | 129° |
| 2026-04-22 19:30 | 53.04644 | -3.29769 | 4641 ft | 160 kts | 129° |
| 2026-04-22 19:30 | 53.03957 | -3.28262 | 4634 ft | 165 kts | 117° |
| 2026-04-22 19:31 | 53.03608 | -3.26437 | 4591 ft | 172 kts | 105° |
| 2026-04-22 19:31 | 53.03290 | -3.24422 | 4457 ft | 184 kts | 105° |
| 2026-04-22 19:31 | 53.03091 | -3.23163 | 4377 ft | 190 kts | 105° |
| 2026-04-22 19:31 | 53.03085 | -3.23128 | 4374 ft | 190 kts | 105° |
| 2026-04-22 19:32 | 53.02829 | -3.20916 | 4232 ft | 198 kts | 93° |
| 2026-04-22 19:32 | 53.02788 | -3.18594 | 4096 ft | 205 kts | 92° |
| 2026-04-22 19:32 | 53.03046 | -3.16242 | 3932 ft | 208 kts | 61° |
| 2026-04-22 19:32 | 53.04074 | -3.14715 | 3755 ft | 196 kts | 24° |
| 2026-04-22 19:33 | 53.05265 | -3.13822 | 3497 ft | 190 kts | 30° |
| 2026-04-22 19:33 | 53.06357 | -3.12639 | 3218 ft | 186 kts | 35° |
| 2026-04-22 19:33 | 53.07386 | -3.11388 | 2935 ft | 181 kts | 37° |
| 2026-04-22 19:33 | 53.08364 | -3.10152 | 2652 ft | 170 kts | 37° |
| 2026-04-22 19:34 | 53.09243 | -3.09029 | 2384 ft | 148 kts | 38° |
| 2026-04-22 19:34 | 53.10034 | -3.08062 | 2098 ft | 142 kts | 32° |
| 2026-04-22 19:34 | 53.10918 | -3.07303 | 1791 ft | 144 kts | 26° |
| 2026-04-22 19:34 | 53.11779 | -3.06491 | 1557 ft | 142 kts | 36° |
| 2026-04-22 19:35 | 53.12522 | -3.05459 | 1336 ft | 130 kts | 41° |
| 2026-04-22 19:35 | 53.13165 | -3.04489 | 1089 ft | 122 kts | 42° |
| 2026-04-22 19:35 | 53.13589 | -3.03862 | 1027 ft | 122 kts | 41° |
| 2026-04-22 19:35 | 53.14462 | -3.02615 | 890 ft | 125 kts | 40° |
| 2026-04-22 19:36 | 53.15143 | -3.01623 | 677 ft | 130 kts | 42° |
| 2026-04-22 19:36 | 53.15801 | -3.00670 | 523 ft | 128 kts | 41° |
| 2026-04-22 19:36 | 53.16455 | -2.99729 | 329 ft | 124 kts | 40° |
| 2026-04-22 19:36 | 53.17081 | -2.98819 | 137 ft | 127 kts | 39° |
| 2026-04-22 19:37 | 53.17668 | -2.97969 | 27 ft | 106 kts | 41° |
| 2026-04-22 19:37 | 53.17950 | -2.97561 | 20 ft | 20 kts | 41° |
| 2026-04-22 19:37 | 53.18103 | -2.97343 | 20 ft | 31 kts | 41° |
| 2026-04-22 19:37 | 53.18261 | -2.97113 | 20 ft | 31 kts | 41° |
| 2026-04-22 19:38 | 53.18372 | -2.96953 | 23 ft | 21 kts | 41° |
| 2026-04-22 19:38 | 53.18458 | -2.96828 | 23 ft | 13 kts | 41° |
| 2026-04-22 19:38 | 53.18506 | -2.96819 | 24 ft | 10 kts | 292° |
| 2026-04-22 19:38 | 53.18511 | -2.96926 | 24 ft | 13 kts | 258° |
| 2026-04-22 19:39 | 53.18485 | -2.97091 | 23 ft | 16 kts | 255° |
| 2026-04-22 19:39 | 53.18454 | -2.97313 | 22 ft | 7 kts | 268° |
| 2026-04-22 19:39 | 53.18461 | -2.97401 | 23 ft | 10 kts | 287° |
| 2026-04-22 19:39 | 53.18503 | -2.97553 | 23 ft | 13 kts | 289° |
| 2026-04-22 19:40 | 53.18531 | -2.97718 | 24 ft | 7 kts | 285° |
| 2026-04-22 19:40 | 53.18550 | -2.97759 | 24 ft | 4 kts | 28° |
| 2026-04-22 19:40 | 53.18572 | -2.97694 | 24 ft | 9 kts | 65° |
| 2026-04-22 19:40 | 53.18595 | -2.97569 | 23 ft | 11 kts | 77° |
| 2026-04-22 19:41 | 53.18584 | -2.97497 | 23 ft | 5 kts | 123° |
| 2026-04-22 19:41 | 53.18560 | -2.97459 | 23 ft | 5 kts | 181° |
| 2026-04-22 19:41 | 53.18546 | -2.97483 | 23 ft | 0 kts | 254° |